createdAt,value
2019-01-19T00:01:40.913Z,18.40
2019-01-19T00:04:15.398Z,24.07
2019-01-19T00:06:50.012Z,21.43
2019-01-19T00:09:18.463Z,23.23
2019-01-19T00:12:03.795Z,31.60
2019-01-19T00:14:30.350Z,28.40
2019-01-19T00:16:58.799Z,31.87
2019-01-19T00:19:36.148Z,27.67
2019-01-19T00:22:04.593Z,20.87
2019-01-19T00:24:42.092Z,26.50
2019-01-19T00:27:13.292Z,25.13
2019-01-19T00:29:41.762Z,21.07
2019-01-19T00:32:13.417Z,19.27
2019-01-19T00:34:58.753Z,21.83
2019-01-19T00:37:29.989Z,20.07
2019-01-19T00:40:01.713Z,23.10
2019-01-19T00:42:30.155Z,24.53
2019-01-19T00:44:58.609Z,25.77
2019-01-19T00:47:43.857Z,22.17
2019-01-19T00:50:12.298Z,23.87
2019-01-19T00:52:40.734Z,24.97
2019-01-19T00:55:09.190Z,23.07
2019-01-19T00:57:54.274Z,26.43
2019-01-19T01:00:22.822Z,22.83
2019-01-19T01:03:00.644Z,21.43
2019-01-19T01:05:29.651Z,23.97
2019-01-19T01:07:58.095Z,21.17
2019-01-19T01:10:26.543Z,21.60
2019-01-19T01:13:03.908Z,22.90
2019-01-19T01:15:38.456Z,28.23
2019-01-19T01:18:06.897Z,17.87
2019-01-19T01:20:44.602Z,15.87
2019-01-19T01:23:15.830Z,19.40
2019-01-19T01:26:02.540Z,20.13
2019-01-19T01:28:31.062Z,28.47
2019-01-19T01:31:02.380Z,22.57
2019-01-19T01:33:43.195Z,21.33
2019-01-19T01:36:11.649Z,28.17
2019-01-19T01:38:49.148Z,21.20
2019-01-19T01:41:32.788Z,22.77
2019-01-19T01:44:04.443Z,22.20
2019-01-19T01:46:32.894Z,28.10
2019-01-19T01:49:17.932Z,24.60
2019-01-19T01:51:46.720Z,22.57
2019-01-19T01:54:15.184Z,22.97
2019-01-19T01:56:41.730Z,27.00
2019-01-19T01:59:13.239Z,28.57
2019-01-19T02:01:44.727Z,27.77
2019-01-19T02:04:18.983Z,30.70
2019-01-19T02:06:47.443Z,28.20
2019-01-19T02:09:19.032Z,35.73
2019-01-19T02:11:47.780Z,30.73
2019-01-19T02:14:22.087Z,28.50
2019-01-19T02:17:02.646Z,24.87
2019-01-19T02:19:47.829Z,23.77
2019-01-19T02:22:34.255Z,17.30
2019-01-19T02:25:02.691Z,14.30
2019-01-19T02:27:34.132Z,22.43
2019-01-19T02:30:05.345Z,20.53
2019-01-19T02:32:39.732Z,17.60
2019-01-19T02:35:08.175Z,19.57
2019-01-19T02:37:39.383Z,23.43
2019-01-19T02:40:07.824Z,22.80
2019-01-19T02:42:39.451Z,18.43
2019-01-19T02:45:24.559Z,21.80
2019-01-19T02:48:02.117Z,24.20
2019-01-19T02:50:30.565Z,25.73
2019-01-19T02:52:59.023Z,30.80
2019-01-19T02:55:30.465Z,26.57
2019-01-19T02:58:08.008Z,29.93
2019-01-19T03:00:48.812Z,23.63
2019-01-19T03:03:23.069Z,26.13
2019-01-19T03:05:56.312Z,29.27
2019-01-19T03:08:37.342Z,28.67
2019-01-19T03:11:08.796Z,21.30
2019-01-19T03:13:37.239Z,22.17
2019-01-19T03:16:17.685Z,19.50
2019-01-19T03:18:46.140Z,25.90
2019-01-19T03:21:20.356Z,19.93
2019-01-19T03:23:57.765Z,20.07
2019-01-19T03:26:26.200Z,18.17
2019-01-19T03:29:00.570Z,19.27
2019-01-19T03:31:29.004Z,16.07
2019-01-19T03:33:57.463Z,15.50
2019-01-19T03:36:31.988Z,14.90
2019-01-19T03:39:05.119Z,20.10
2019-01-19T03:41:37.379Z,13.60
2019-01-19T03:44:18.165Z,14.07
2019-01-19T03:47:03.543Z,13.50
2019-01-19T03:49:48.843Z,11.47
2019-01-19T03:52:17.280Z,14.83
2019-01-19T03:54:48.676Z,16.40
2019-01-19T03:57:35.514Z,18.40
2019-01-19T04:00:10.067Z,10.53
2019-01-19T04:02:41.324Z,15.13
2019-01-19T04:05:13.031Z,14.03
2019-01-19T04:07:44.301Z,14.67
2019-01-19T04:10:15.840Z,11.70
2019-01-19T04:12:44.274Z,18.90
2019-01-19T04:15:12.718Z,14.90
2019-01-19T04:17:50.211Z,13.53
2019-01-19T04:20:24.783Z,10.07
2019-01-19T04:22:51.322Z,12.27
2019-01-19T04:25:19.775Z,12.03
2019-01-19T04:27:46.304Z,13.03
2019-01-19T04:30:12.956Z,12.97
2019-01-19T04:32:39.495Z,13.20
2019-01-19T04:35:06.045Z,10.27
2019-01-19T04:37:32.627Z,11.10
2019-01-19T04:39:59.186Z,15.43
2019-01-19T04:42:26.027Z,15.03
2019-01-19T04:44:52.569Z,21.73
2019-01-19T04:47:19.103Z,15.47
2019-01-19T04:49:45.658Z,17.67
2019-01-19T04:52:12.197Z,19.33
2019-01-19T04:54:38.748Z,20.97
2019-01-19T04:57:05.285Z,12.10
2019-01-19T04:59:31.838Z,12.63
2019-01-19T05:01:58.390Z,13.87
2019-01-19T05:04:24.932Z,16.23
2019-01-19T05:06:51.479Z,12.33
2019-01-19T05:09:18.397Z,13.07
2019-01-19T05:11:44.953Z,14.33
2019-01-19T05:14:11.479Z,12.90
2019-01-19T05:16:38.025Z,14.40
2019-01-19T05:19:05.572Z,14.70
2019-01-19T05:21:32.396Z,12.70
2019-01-19T05:23:59.045Z,13.63
2019-01-19T05:26:25.591Z,15.33
2019-01-19T05:28:52.140Z,11.37
2019-01-19T05:31:18.683Z,15.77
2019-01-19T05:33:45.220Z,11.30
2019-01-19T05:36:11.775Z,13.77
2019-01-19T05:38:38.307Z,11.83
2019-01-19T05:41:04.890Z,14.47
2019-01-19T05:43:31.429Z,11.90
2019-01-19T05:45:57.980Z,13.13
2019-01-19T05:48:24.521Z,12.73
2019-01-19T05:50:51.081Z,12.80
2019-01-19T05:53:17.714Z,17.00
2019-01-19T05:55:44.273Z,12.77
2019-01-19T05:58:10.808Z,10.93
2019-01-19T06:00:37.406Z,10.20
2019-01-19T06:03:04.016Z,7.80
2019-01-19T06:05:30.547Z,11.47
2019-01-19T06:07:57.501Z,13.37
2019-01-19T06:10:24.047Z,13.43
2019-01-19T06:12:50.612Z,16.43
2019-01-19T06:15:17.169Z,8.17
2019-01-19T06:17:43.724Z,11.40
2019-01-19T06:20:12.165Z,10.70
2019-01-19T06:22:38.714Z,14.40
2019-01-19T06:25:06.855Z,14.33
2019-01-19T06:27:33.498Z,12.43
2019-01-19T06:30:00.039Z,15.93
2019-01-19T06:32:26.583Z,14.17
2019-01-19T06:34:53.116Z,16.70
2019-01-19T06:37:19.668Z,18.10
2019-01-19T06:39:46.200Z,11.97
2019-01-19T06:42:12.756Z,14.67
2019-01-19T06:44:39.432Z,13.37
2019-01-19T06:47:05.975Z,13.43
2019-01-19T06:49:32.516Z,15.80
2019-01-19T06:51:59.051Z,12.50
2019-01-19T06:54:25.707Z,16.43
2019-01-19T06:56:52.248Z,13.50
2019-01-19T06:59:18.807Z,12.10
2019-01-19T07:01:45.351Z,15.40
2019-01-19T07:04:11.918Z,14.63
2019-01-19T07:06:38.596Z,18.57
2019-01-19T07:09:05.144Z,12.97
2019-01-19T07:11:31.683Z,15.23
2019-01-19T07:13:59.100Z,16.87
2019-01-19T07:16:25.771Z,13.33
2019-01-19T07:18:52.319Z,12.63
2019-01-19T07:21:18.856Z,13.30
2019-01-19T07:23:45.420Z,12.83
2019-01-19T07:26:11.955Z,13.13
2019-01-19T07:28:38.507Z,18.97
2019-01-19T07:31:05.043Z,15.63
2019-01-19T07:33:31.587Z,18.57
2019-01-19T07:35:58.128Z,11.93
2019-01-19T07:38:24.691Z,12.07
2019-01-19T07:40:51.231Z,15.47
2019-01-19T07:43:18.276Z,19.63
2019-01-19T07:45:44.819Z,78.03
2019-01-19T07:48:11.662Z,30.13
2019-01-19T07:53:33.606Z,14.53
2019-01-19T07:56:00.151Z,17.40
2019-01-19T07:58:26.714Z,16.47
2019-01-19T08:00:53.339Z,19.37
2019-01-19T08:03:19.902Z,21.80
2019-01-19T08:05:46.474Z,24.90
2019-01-19T08:08:13.013Z,18.63
2019-01-19T08:10:39.562Z,25.27
2019-01-19T08:13:06.105Z,22.60
2019-01-19T08:15:32.832Z,18.10
2019-01-19T08:17:59.359Z,21.13
2019-01-19T08:20:25.917Z,26.50
2019-01-19T08:22:52.451Z,30.03
2019-01-19T08:25:19.007Z,16.90
2019-01-19T08:27:45.544Z,27.67
2019-01-19T08:30:16.175Z,17.80
2019-01-19T08:32:42.710Z,20.87
2019-01-19T08:35:09.760Z,22.43
2019-01-19T08:37:36.303Z,20.63
2019-01-19T08:40:05.015Z,20.07
2019-01-19T08:42:31.864Z,22.63
2019-01-19T08:44:58.607Z,17.63
2019-01-19T08:47:25.143Z,21.27
2019-01-19T08:49:51.712Z,22.27
2019-01-19T08:52:18.243Z,19.00
2019-01-19T08:54:44.792Z,19.93
2019-01-19T08:57:11.328Z,15.10
2019-01-19T08:59:37.875Z,17.23
2019-01-19T09:02:04.628Z,22.20
2019-01-19T09:04:31.180Z,17.93
2019-01-19T09:06:57.727Z,13.47
2019-01-19T09:09:24.274Z,17.40
2019-01-19T09:11:50.825Z,15.13
2019-01-19T09:14:17.379Z,19.23
2019-01-19T09:16:43.913Z,14.17
2019-01-19T09:19:10.484Z,12.83
2019-01-19T09:21:37.027Z,10.73
2019-01-19T09:24:03.965Z,14.13
2019-01-19T09:26:30.504Z,11.90
2019-01-19T09:28:57.039Z,13.40
2019-01-19T09:31:23.586Z,10.97
2019-01-19T09:33:50.129Z,10.97
2019-01-19T09:36:16.685Z,11.63
2019-01-19T09:38:43.219Z,9.83
2019-01-19T09:41:09.770Z,12.43
2019-01-19T09:43:36.319Z,12.13
2019-01-19T09:46:02.875Z,15.70
2019-01-19T09:48:29.411Z,10.07
2019-01-19T09:50:55.979Z,13.57
2019-01-19T09:53:22.544Z,10.70
2019-01-19T09:55:49.087Z,11.67
2019-01-19T09:58:15.649Z,11.30
2019-01-19T10:00:45.730Z,11.77
2019-01-19T10:03:10.654Z,13.03
2019-01-19T10:05:37.192Z,12.70
2019-01-19T10:08:03.728Z,11.67
2019-01-19T10:10:30.289Z,13.30
2019-01-19T10:12:56.859Z,11.10
2019-01-19T10:15:23.408Z,9.83
2019-01-19T10:17:49.949Z,12.40
2019-01-19T10:20:17.824Z,13.30
2019-01-19T10:22:44.556Z,11.40
2019-01-19T10:25:14.827Z,12.60
2019-01-19T10:27:41.359Z,11.07
2019-01-19T10:30:15.959Z,15.70
2019-01-19T10:32:42.507Z,11.80
2019-01-19T10:35:10.266Z,11.37
2019-01-19T10:37:36.845Z,17.13
2019-01-19T10:40:05.288Z,14.40
2019-01-19T10:42:31.823Z,12.27
2019-01-19T10:44:58.359Z,11.70
2019-01-19T10:47:24.916Z,11.07
2019-01-19T10:49:51.465Z,12.93
2019-01-19T10:52:18.028Z,11.80
2019-01-19T10:54:44.576Z,10.80
2019-01-19T10:57:11.131Z,10.50
2019-01-19T10:59:37.686Z,13.70
2019-01-19T11:02:04.259Z,11.93
2019-01-19T11:04:30.803Z,11.17
2019-01-19T11:06:57.357Z,10.67
2019-01-19T11:09:23.907Z,14.50
2019-01-19T11:11:50.705Z,10.43
2019-01-19T11:14:17.237Z,12.20
2019-01-19T11:16:43.784Z,10.67
2019-01-19T11:19:10.319Z,12.37
2019-01-19T11:21:36.902Z,16.27
2019-01-19T11:24:03.462Z,13.67
2019-01-19T11:26:30.008Z,11.50
2019-01-19T11:28:56.557Z,10.87
2019-01-19T11:31:23.171Z,11.20
2019-01-19T11:33:49.736Z,12.27
2019-01-19T11:36:16.373Z,11.70
2019-01-19T11:38:42.916Z,10.70
2019-01-19T11:41:09.476Z,13.37
2019-01-19T11:43:36.016Z,9.27
2019-01-19T11:46:02.566Z,11.40
2019-01-19T11:48:29.102Z,10.40
2019-01-19T11:50:55.661Z,14.10
2019-01-19T11:53:22.198Z,11.67
2019-01-19T11:55:48.765Z,11.80
2019-01-19T11:58:15.304Z,10.87
2019-01-19T12:00:41.844Z,11.60
2019-01-19T12:03:08.504Z,12.47
2019-01-19T12:05:35.042Z,14.70
2019-01-19T12:08:01.595Z,13.30
2019-01-19T12:10:29.297Z,11.83
2019-01-19T12:12:57.493Z,11.10
2019-01-19T12:15:24.628Z,9.83
2019-01-19T12:17:51.281Z,12.80
2019-01-19T12:20:24.933Z,15.93
2019-01-19T12:22:51.471Z,11.40
2019-01-19T12:25:19.223Z,12.47
2019-01-19T12:27:45.772Z,15.10
2019-01-19T12:30:16.526Z,12.83
2019-01-19T12:32:43.090Z,9.97
2019-01-19T12:35:09.735Z,11.43
2019-01-19T12:37:36.296Z,12.60
2019-01-19T12:40:04.738Z,15.10
2019-01-19T12:42:31.284Z,12.60
2019-01-19T12:44:57.819Z,26.70
2019-01-19T12:47:24.372Z,12.63
2019-01-19T12:49:50.908Z,13.87
2019-01-19T12:52:17.475Z,12.40
2019-01-19T12:54:44.015Z,16.20
2019-01-19T12:57:10.600Z,17.50
2019-01-19T12:59:37.132Z,12.73
2019-01-19T13:02:03.686Z,13.00
2019-01-19T13:04:30.223Z,27.17
2019-01-19T13:06:56.767Z,14.20
2019-01-19T13:09:23.305Z,13.40
2019-01-19T13:12:03.767Z,13.87
2019-01-19T13:14:31.262Z,13.10
2019-01-19T13:17:09.039Z,13.60
2019-01-19T13:19:37.484Z,12.40
2019-01-19T13:22:12.063Z,12.93
2019-01-19T13:24:43.263Z,15.23
2019-01-19T13:27:14.473Z,12.73
2019-01-19T13:29:45.759Z,14.37
2019-01-19T13:32:26.610Z,16.67
2019-01-19T13:34:57.924Z,14.17
2019-01-19T13:37:29.405Z,15.33
2019-01-19T13:40:16.236Z,16.27
2019-01-19T13:42:51.000Z,13.70
2019-01-19T13:45:25.655Z,13.73
2019-01-19T13:47:54.107Z,13.83
2019-01-19T13:50:25.607Z,11.83
2019-01-19T13:52:57.062Z,14.27
2019-01-19T13:55:25.636Z,13.10
2019-01-19T13:57:57.167Z,12.03
2019-01-19T14:00:28.628Z,13.73
2019-01-19T14:02:57.113Z,13.50
2019-01-19T14:05:37.663Z,12.10
2019-01-19T14:08:22.697Z,12.30
2019-01-19T14:11:06.343Z,15.27
2019-01-19T14:13:37.648Z,13.37
2019-01-19T14:16:15.197Z,14.17
2019-01-19T14:18:49.582Z,17.83
2019-01-19T14:21:18.040Z,15.27
2019-01-19T14:23:46.903Z,12.03
2019-01-19T14:26:15.344Z,14.53
2019-01-19T14:28:49.615Z,12.30
2019-01-19T14:31:21.099Z,12.73
2019-01-19T14:33:52.708Z,11.63
2019-01-19T14:36:23.927Z,13.33
2019-01-19T14:38:56.589Z,14.70
2019-01-19T14:41:28.596Z,10.50
2019-01-19T14:44:03.369Z,10.77
2019-01-19T14:46:38.106Z,24.80
2019-01-19T14:49:06.560Z,13.50
2019-01-19T14:51:37.776Z,13.07
2019-01-19T14:54:09.183Z,11.17
2019-01-19T14:56:37.623Z,14.87
2019-01-19T14:59:06.090Z,10.03
2019-01-19T15:01:37.632Z,13.43
2019-01-19T15:04:06.121Z,9.83
2019-01-19T15:06:50.017Z,12.93
2019-01-19T15:09:21.277Z,12.30
2019-01-19T15:11:52.742Z,11.40
2019-01-19T15:14:24.737Z,12.03
2019-01-19T15:17:05.499Z,12.00
2019-01-19T15:19:50.193Z,12.10
2019-01-19T15:22:27.899Z,10.00
2019-01-19T15:24:59.403Z,14.67
2019-01-19T15:27:45.186Z,12.37
2019-01-19T15:30:13.635Z,8.93
2019-01-19T15:32:44.882Z,70.07
2019-01-19T15:35:30.204Z,13.47
2019-01-19T15:38:11.036Z,12.83
2019-01-19T15:40:39.491Z,17.50
2019-01-19T15:43:09.047Z,12.27
2019-01-19T15:45:52.645Z,10.93
2019-01-19T15:48:21.095Z,14.53
2019-01-19T15:51:04.908Z,13.47
2019-01-19T15:53:33.349Z,15.70
2019-01-19T15:56:01.808Z,14.77
2019-01-19T15:58:39.312Z,14.80
2019-01-19T16:01:23.271Z,11.20
2019-01-19T16:03:51.726Z,13.53
2019-01-19T16:06:26.211Z,11.87
2019-01-19T16:08:54.655Z,12.90
2019-01-19T16:11:28.973Z,9.50
2019-01-19T16:14:14.355Z,13.70
2019-01-19T16:16:52.282Z,12.87
2019-01-19T16:19:26.598Z,12.67
2019-01-19T16:21:57.927Z,11.03
2019-01-19T16:24:38.411Z,12.43
2019-01-19T16:27:06.864Z,17.33
2019-01-19T16:29:50.355Z,14.20
2019-01-19T16:32:18.820Z,10.77
2019-01-19T16:34:53.319Z,14.23
2019-01-19T16:37:21.847Z,17.27
2019-01-19T16:39:53.514Z,12.90
2019-01-19T16:42:22.007Z,13.87
2019-01-19T16:44:56.677Z,11.97
2019-01-19T16:47:37.080Z,19.20
2019-01-19T16:50:05.589Z,18.70
2019-01-19T16:52:34.047Z,13.40
2019-01-19T16:55:08.536Z,13.50
2019-01-19T16:57:37.213Z,17.63
2019-01-19T17:00:08.404Z,17.00
2019-01-19T17:02:49.227Z,16.33
2019-01-19T17:05:17.672Z,14.03
2019-01-19T17:07:52.168Z,15.17
2019-01-19T17:10:26.858Z,15.87
2019-01-19T17:13:04.628Z,19.00
2019-01-19T17:15:38.979Z,16.27
2019-01-19T17:18:07.436Z,15.43
2019-01-19T17:20:38.887Z,18.07
2019-01-19T17:23:11.216Z,18.63
2019-01-19T17:25:51.831Z,17.27
2019-01-19T17:28:32.167Z,17.47
2019-01-19T17:31:12.947Z,16.10
2019-01-19T17:33:41.408Z,21.80
2019-01-19T17:36:09.855Z,17.77
2019-01-19T17:38:38.308Z,14.40
2019-01-19T17:41:09.509Z,20.77
2019-01-19T17:43:47.288Z,15.97
2019-01-19T17:46:16.142Z,17.07
2019-01-19T17:48:54.065Z,13.97
2019-01-19T17:51:22.511Z,18.03
2019-01-19T17:53:50.957Z,24.47
2019-01-19T17:56:31.466Z,21.83
2019-01-19T17:59:08.915Z,22.83
2019-01-19T18:01:46.397Z,18.20
2019-01-19T18:04:17.959Z,17.97
2019-01-19T18:06:46.412Z,28.93
2019-01-19T18:09:23.764Z,30.30
2019-01-19T18:11:54.957Z,33.10
2019-01-19T18:14:23.428Z,33.20
2019-01-19T18:16:54.910Z,28.00
2019-01-19T18:19:26.159Z,28.37
2019-01-19T18:21:54.599Z,26.57
2019-01-19T18:24:38.518Z,31.67
2019-01-19T18:27:10.127Z,34.97
2019-01-19T18:29:53.987Z,49.60
2019-01-19T18:32:22.447Z,51.27
2019-01-19T18:34:50.900Z,53.53
2019-01-19T18:37:34.638Z,39.57
2019-01-19T18:40:12.324Z,26.40
2019-01-19T18:42:40.772Z,28.80
2019-01-19T18:45:21.063Z,30.47
2019-01-19T18:47:49.566Z,28.17
2019-01-19T18:50:18.076Z,19.77
2019-01-19T18:52:46.519Z,20.63
2019-01-19T18:55:17.919Z,28.73
2019-01-19T18:58:02.988Z,28.37
2019-01-19T19:00:31.457Z,28.60
2019-01-19T19:03:02.915Z,23.63
2019-01-19T19:05:31.372Z,44.77
2019-01-19T19:07:59.815Z,31.57
2019-01-19T19:10:43.671Z,29.37
2019-01-19T19:13:12.268Z,27.60
2019-01-19T19:15:47.103Z,29.57
2019-01-19T19:18:27.872Z,31.97
2019-01-19T19:21:02.183Z,40.97
2019-01-19T19:23:33.635Z,29.40
2019-01-19T19:26:02.504Z,29.43
2019-01-19T19:28:43.112Z,24.07
2019-01-19T19:31:14.846Z,32.33
2019-01-19T19:33:55.363Z,25.07
2019-01-19T19:36:35.876Z,23.00
2019-01-19T19:39:04.346Z,21.80
2019-01-19T19:41:38.791Z,22.10
2019-01-19T19:44:22.656Z,22.73
2019-01-19T19:47:09.592Z,24.70
2019-01-19T19:49:53.131Z,24.07
2019-01-19T19:52:19.672Z,23.73
2019-01-19T19:54:51.883Z,22.83
2019-01-19T19:57:18.892Z,29.33
2019-01-19T19:59:45.431Z,25.10
2019-01-19T20:02:12.281Z,26.70
2019-01-19T20:04:38.810Z,28.23
2019-01-19T20:07:05.354Z,24.67
2019-01-19T20:09:32.102Z,24.17
2019-01-19T20:12:00.164Z,26.63
2019-01-19T20:14:26.697Z,22.33
2019-01-19T20:16:53.243Z,26.17
2019-01-19T20:19:19.779Z,23.97
2019-01-19T20:21:46.332Z,34.40
2019-01-19T20:24:12.876Z,24.83
2019-01-19T20:26:39.419Z,27.47
2019-01-19T20:29:06.022Z,21.00
2019-01-19T20:31:32.692Z,27.70
2019-01-19T20:33:59.341Z,22.80
2019-01-19T20:36:25.894Z,25.37
2019-01-19T20:38:52.481Z,22.47
2019-01-19T20:41:19.124Z,19.30
2019-01-19T20:43:45.712Z,21.60
2019-01-19T20:46:12.323Z,25.90
2019-01-19T20:48:39.146Z,27.43
2019-01-19T20:51:05.710Z,20.90
2019-01-19T20:53:32.248Z,24.30
2019-01-19T20:55:58.796Z,29.40
2019-01-19T20:58:25.332Z,24.20
2019-01-19T21:00:51.884Z,26.27
2019-01-19T21:03:18.458Z,26.87
2019-01-19T21:05:45.015Z,32.80
2019-01-19T21:08:11.567Z,22.80
2019-01-19T21:10:38.100Z,28.67
2019-01-19T21:13:04.642Z,27.70
2019-01-19T21:15:31.175Z,28.23
2019-01-19T21:17:57.727Z,25.77
2019-01-19T21:20:24.262Z,32.23
2019-01-19T21:22:50.815Z,31.13
2019-01-19T21:25:17.354Z,28.27
2019-01-19T21:27:44.295Z,25.77
2019-01-19T21:30:12.539Z,28.43
2019-01-19T21:32:39.088Z,26.87
2019-01-19T21:35:05.822Z,28.70
2019-01-19T21:37:32.381Z,21.03
2019-01-19T21:39:58.981Z,24.13
2019-01-19T21:42:25.551Z,21.93
2019-01-19T21:44:52.091Z,30.93
2019-01-19T21:47:18.640Z,30.10
2019-01-19T21:49:45.176Z,27.13
2019-01-19T21:52:11.719Z,31.47
2019-01-19T21:54:38.262Z,25.07
2019-01-19T21:57:04.809Z,25.33
2019-01-19T21:59:31.347Z,27.33
2019-01-19T22:01:57.898Z,25.80
2019-01-19T22:04:24.460Z,26.47
2019-01-19T22:06:51.007Z,30.83
2019-01-19T22:09:17.576Z,23.57
2019-01-19T22:11:44.126Z,35.03
2019-01-19T22:14:10.767Z,29.00
2019-01-19T22:16:37.320Z,22.23
2019-01-19T22:19:03.867Z,25.50
2019-01-19T22:21:30.528Z,29.23
2019-01-19T22:23:57.068Z,29.57
2019-01-19T22:26:24.008Z,25.93
2019-01-19T22:28:50.559Z,27.87
2019-01-19T22:31:17.093Z,34.23
2019-01-19T22:33:43.643Z,20.47
2019-01-19T22:36:10.182Z,32.80
2019-01-19T22:38:36.722Z,31.77
2019-01-19T22:41:03.267Z,35.27
2019-01-19T22:43:29.911Z,33.53
2019-01-19T22:45:56.443Z,31.87
2019-01-19T22:48:23.017Z,26.80
2019-01-19T22:50:49.548Z,32.20
2019-01-19T22:53:16.097Z,24.63
2019-01-19T22:55:42.656Z,27.20
2019-01-19T22:58:09.211Z,26.70
2019-01-19T23:00:39.561Z,27.53
2019-01-19T23:03:06.632Z,26.77
2019-01-19T23:05:33.364Z,31.90
2019-01-19T23:07:59.912Z,27.73
2019-01-19T23:10:26.464Z,29.27
2019-01-19T23:12:53.012Z,28.83
2019-01-19T23:15:19.554Z,31.43
2019-01-19T23:17:46.100Z,27.53
2019-01-19T23:20:12.754Z,27.33
2019-01-19T23:22:39.616Z,35.30
2019-01-19T23:25:06.256Z,29.27
2019-01-19T23:27:32.796Z,31.63
2019-01-19T23:29:59.348Z,26.80
2019-01-19T23:32:25.879Z,30.20
2019-01-19T23:34:52.436Z,26.73
2019-01-19T23:37:18.971Z,26.43
2019-01-19T23:39:45.528Z,28.37
2019-01-19T23:42:12.075Z,30.97
2019-01-19T23:44:38.684Z,29.60
2019-01-19T23:47:05.264Z,29.87
2019-01-19T23:49:31.818Z,24.47
2019-01-19T23:51:58.364Z,23.97
2019-01-19T23:54:24.947Z,22.20
2019-01-19T23:56:51.496Z,29.77
2019-01-19T23:59:18.043Z,28.23
